createdAt,value
2023-03-06T05:08:15.670Z,16.77
2023-03-06T05:10:59.247Z,16.42
2023-03-06T05:16:48.902Z,14.93
2023-03-06T05:19:22.937Z,19.02
2023-03-06T05:22:11.495Z,17.70
2023-03-06T05:24:44.805Z,19.17
2023-03-06T05:27:31.851Z,15.80
2023-03-06T05:30:10.127Z,16.70
2023-03-06T05:38:37.350Z,21.05
2023-03-06T05:41:16.067Z,22.13
2023-03-06T05:43:56.493Z,19.42
2023-03-06T05:46:30.023Z,18.35
2023-03-06T05:49:05.911Z,18.52
2023-03-06T05:54:35.844Z,18.70
2023-03-06T05:57:16.883Z,22.00
2023-03-06T05:59:48.162Z,20.13
2023-03-06T06:02:24.526Z,23.30
2023-03-06T06:04:52.349Z,26.30
2023-03-06T06:07:35.153Z,27.45
2023-03-06T06:10:13.416Z,25.95
2023-03-06T06:18:20.830Z,20.17
2023-03-06T06:50:46.745Z,19.20
2023-03-06T06:53:28.287Z,19.88
2023-03-06T06:56:11.117Z,21.00
2023-03-06T06:58:55.948Z,19.63
2023-03-06T07:10:10.902Z,25.90
2023-03-06T07:15:47.046Z,22.08
2023-03-06T07:21:24.871Z,23.70
2023-03-06T07:23:55.933Z,24.90
2023-03-06T07:35:59.922Z,22.50
2023-03-06T07:38:35.874Z,28.25
2023-03-06T08:01:30.461Z,24.17
2023-03-06T08:07:00.624Z,25.85
2023-03-06T08:12:24.683Z,24.27
2023-03-06T08:15:28.874Z,24.45
2023-03-06T08:38:47.757Z,18.38
2023-03-06T08:41:38.310Z,21.17
2023-03-06T08:44:16.543Z,20.15
2023-03-06T08:46:58.078Z,22.20
2023-03-06T08:52:34.219Z,21.88
2023-03-06T08:55:10.329Z,21.85
2023-03-06T08:57:37.963Z,22.75
2023-03-06T09:00:10.691Z,22.23
2023-03-06T09:02:51.381Z,21.10
2023-03-06T09:08:14.367Z,23.42
2023-03-06T09:10:42.241Z,21.17
2023-03-06T09:13:45.676Z,21.98
2023-03-06T09:16:49.715Z,25.35
2023-03-06T09:19:24.924Z,28.50
2023-03-06T09:22:02.511Z,24.15
2023-03-06T09:24:35.829Z,22.45
2023-03-06T09:27:17.715Z,24.03
2023-03-06T09:30:05.885Z,25.30
2023-03-06T09:32:38.870Z,24.77
2023-03-06T09:35:20.106Z,24.42
2023-03-06T09:55:58.579Z,27.10
2023-03-06T09:58:48.668Z,24.60
2023-03-06T10:01:24.659Z,25.67
2023-03-06T10:06:52.237Z,23.60
2023-03-06T10:13:35.579Z,25.53
2023-03-06T10:16:13.129Z,25.30
2023-03-06T10:21:47.978Z,22.05
2023-03-06T10:38:25.676Z,20.90
2023-03-06T10:44:27.647Z,18.60
2023-03-06T11:12:32.466Z,14.35
2023-03-06T11:18:29.302Z,15.80
2023-03-06T11:21:08.915Z,15.63
2023-03-06T11:23:37.480Z,13.40
2023-03-06T11:26:17.502Z,12.15
2023-03-06T11:28:47.935Z,15.25
2023-03-06T11:31:41.860Z,12.98
2023-03-06T11:34:18.776Z,12.57
2023-03-06T11:36:55.975Z,10.27
2023-03-06T11:39:31.391Z,10.18
2023-03-06T11:42:22.746Z,15.38
2023-03-06T11:44:58.162Z,14.10
2023-03-06T11:47:30.004Z,13.40
2023-03-06T11:50:36.138Z,15.45
2023-03-06T11:53:05.599Z,12.80
2023-03-06T11:55:57.617Z,11.43
2023-03-06T11:58:33.526Z,11.50
2023-03-06T12:01:12.171Z,12.60
2023-03-06T12:03:55.821Z,10.82
2023-03-06T12:06:32.721Z,10.53
2023-03-06T12:09:12.819Z,10.73
2023-03-06T12:11:43.068Z,12.98
2023-03-06T12:14:17.010Z,11.48
2023-03-06T12:19:33.170Z,9.48
2023-03-06T12:22:22.268Z,12.03
2023-03-06T12:24:57.145Z,10.15
2023-03-06T12:27:47.128Z,9.25
2023-03-06T12:30:32.265Z,10.48
2023-03-06T12:33:43.166Z,8.30
2023-03-06T12:36:21.024Z,8.52
2023-03-06T12:39:04.984Z,9.10
2023-03-06T12:45:20.520Z,10.15
2023-03-06T12:48:01.298Z,7.47
2023-03-06T12:54:15.952Z,7.00
2023-03-06T12:59:59.077Z,9.02
2023-03-06T13:02:41.219Z,7.20
2023-03-06T13:05:44.859Z,7.25
2023-03-06T13:09:12.356Z,6.05
2023-03-06T13:11:58.095Z,5.22
2023-03-06T13:15:00.466Z,6.63
2023-03-06T13:17:38.857Z,7.45
2023-03-06T13:20:27.708Z,5.75
